Time;durP1;ratioP1;P1;durP2;ratioP2;P2;SDS_P1;SDS_P2;PMS_P1;PMS_P2;Temp;Humidity;BMP_temperature;BMP_pressure;BME280_temperature;BME280_humidity;BME280_pressure;Samples;Min_cycle;Max_cycle;Signal;HPM_P1;HPM_P2
2023/01/02 00:00:18;;;;;;;;;;;26.80;59.30;;;;;;6247125;22;20299;-74
2023/01/02 00:02:45;;;;;;;;;;;26.80;58.00;;;;;;6247109;22;19904;-74
2023/01/02 00:05:12;;;;;;;;;;;26.90;58.70;;;;;;6247238;22;19904;-74
2023/01/02 00:07:38;;;;;;;;;;;27.00;59.20;;;;;;6247013;22;20309;-74
2023/01/02 00:10:05;;;;;;;;;;;27.00;58.70;;;;;;6247647;22;19911;-74
2023/01/02 00:12:31;;;;;;;;;;;26.90;58.40;;;;;;6247040;22;19916;-74
2023/01/02 00:14:58;;;;;;;;;;;26.90;59.10;;;;;;6247183;22;19904;-74
2023/01/02 00:17:25;;;;;;;;;;;26.90;58.40;;;;;;6247455;22;19949;-74
2023/01/02 00:19:51;;;;;;;;;;;26.90;59.70;;;;;;6247138;22;19936;-74
2023/01/02 00:22:18;;;;;;;;;;;26.90;58.50;;;;;;6246949;22;19903;-74
2023/01/02 00:24:44;;;;;;;;;;;26.90;57.70;;;;;;6247413;22;19911;-74
2023/01/02 00:27:11;;;;;;;;;;;26.90;59.20;;;;;;6246952;22;19904;-73
2023/01/02 00:29:38;;;;;;;;;;;26.90;59.80;;;;;;6246936;22;19911;-74
2023/01/02 00:32:04;;;;;;;;;;;26.80;58.90;;;;;;6246990;22;19918;-73
2023/01/02 00:34:31;;;;;;;;;;;26.70;57.80;;;;;;6246848;22;19904;-73
2023/01/02 00:36:57;;;;;;;;;;;26.60;57.10;;;;;;6246877;22;20327;-74
2023/01/02 00:39:24;;;;;;;;;;;26.50;58.60;;;;;;6246622;22;19920;-73
2023/01/02 00:41:51;;;;;;;;;;;26.60;58.40;;;;;;6246526;22;20266;-74
2023/01/02 00:44:17;;;;;;;;;;;26.60;56.50;;;;;;6246672;22;19903;-73
2023/01/02 00:46:44;;;;;;;;;;;26.60;54.90;;;;;;6246889;22;19973;-74
2023/01/02 00:49:10;;;;;;;;;;;26.60;57.50;;;;;;6246855;22;19904;-73
2023/01/02 00:51:37;;;;;;;;;;;26.60;55.70;;;;;;6246370;22;19919;-74
2023/01/02 00:54:04;;;;;;;;;;;26.60;58.10;;;;;;6246948;22;19926;-74
2023/01/02 00:56:30;;;;;;;;;;;26.50;57.90;;;;;;6246563;22;20263;-73
2023/01/02 00:58:57;;;;;;;;;;;26.50;57.90;;;;;;6246607;22;19903;-74
2023/01/02 01:01:23;;;;;;;;;;;26.40;56.30;;;;;;6246655;22;19903;-74
2023/01/02 01:03:50;;;;;;;;;;;26.40;57.10;;;;;;6246674;22;20223;-74
2023/01/02 01:06:16;;;;;;;;;;;26.50;55.90;;;;;;6246438;22;19914;-73
2023/01/02 01:08:43;;;;;;;;;;;26.50;55.10;;;;;;6246301;23;19910;-74
2023/01/02 01:11:14;;;;;;;;;;;26.50;56.60;;;;;;6246462;22;19911;-73
2023/01/02 01:13:40;;;;;;;;;;;26.50;55.40;;;;;;6246360;22;19903;-74
2023/01/02 01:16:08;;;;;;;;;;;26.50;56.60;;;;;;6246237;22;19904;-74
2023/01/02 01:18:35;;;;;;;;;;;26.50;56.50;;;;;;6246297;22;19904;-73
2023/01/02 01:21:08;;;;;;;;;;;26.40;56.30;;;;;;6245797;22;19931;-74
2023/01/02 01:23:35;;;;;;;;;;;26.40;56.00;;;;;;6244572;23;19903;-74
2023/01/02 01:26:05;;;;;;;;;;;26.30;56.70;;;;;;6246257;22;19914;-74
2023/01/02 01:28:31;;;;;;;;;;;26.40;56.10;;;;;;6246498;22;19935;-73
2023/01/02 01:31:02;;;;;;;;;;;26.40;54.70;;;;;;6245968;22;20326;-73
2023/01/02 01:33:29;;;;;;;;;;;26.30;55.80;;;;;;6246885;22;19914;-73
2023/01/02 01:35:59;;;;;;;;;;;26.30;54.80;;;;;;6246053;22;19935;-74
2023/01/02 01:38:26;;;;;;;;;;;26.30;55.30;;;;;;6245946;22;19951;-73
2023/01/02 01:40:52;;;;;;;;;;;26.30;55.60;;;;;;6246138;22;19903;-74
2023/01/02 01:43:39;;;;;;;;;;;26.20;55.00;;;;;;6246469;22;19974;-73
2023/01/02 01:46:06;;;;;;;;;;;26.20;56.40;;;;;;6245279;23;19985;-74
2023/01/02 01:48:33;;;;;;;;;;;26.20;57.60;;;;;;6246026;22;19907;-74
2023/01/02 01:50:59;;;;;;;;;;;26.30;59.40;;;;;;6246288;22;19912;-74
2023/01/02 01:53:26;;;;;;;;;;;26.20;56.90;;;;;;6244480;23;19926;-74
2023/01/02 01:55:53;;;;;;;;;;;26.20;59.10;;;;;;6244790;23;19907;-73
2023/01/02 01:58:20;;;;;;;;;;;26.20;59.40;;;;;;6246027;22;20336;-73
2023/01/02 02:00:47;;;;;;;;;;;26.30;58.60;;;;;;6246005;22;19908;-73
2023/01/02 02:03:15;;;;;;;;;;;26.30;59.90;;;;;;6245805;22;19904;-73
2023/01/02 02:05:41;;;;;;;;;;;26.30;58.90;;;;;;6244473;23;19904;-73
2023/01/02 02:08:23;;;;;;;;;;;26.30;59.70;;;;;;6246619;22;19950;-73
2023/01/02 02:10:50;;;;;;;;;;;26.30;60.70;;;;;;6245668;22;19915;-74
2023/01/02 02:13:16;;;;;;;;;;;26.20;60.10;;;;;;6244472;23;19903;-73
2023/01/02 02:16:01;;;;;;;;;;;26.30;58.30;;;;;;6244672;23;20186;-73
2023/01/02 02:18:36;;;;;;;;;;;26.20;58.90;;;;;;6246125;23;19978;-73
2023/01/02 02:21:06;;;;;;;;;;;26.30;59.50;;;;;;6243865;22;19904;-73
2023/01/02 02:23:41;;;;;;;;;;;26.30;58.50;;;;;;6246052;22;19911;-73
2023/01/02 02:26:13;;;;;;;;;;;26.30;58.20;;;;;;6245809;22;19915;-73
2023/01/02 02:28:58;;;;;;;;;;;26.30;56.60;;;;;;6244611;23;19910;-73
2023/01/02 02:31:24;;;;;;;;;;;26.30;58.50;;;;;;6245284;22;20006;-73
2023/01/02 02:34:20;;;;;;;;;;;26.30;56.20;;;;;;6245880;22;19904;-73
2023/01/02 02:36:50;;;;;;;;;;;26.30;56.20;;;;;;6219520;23;19914;-73
2023/01/02 02:39:36;;;;;;;;;;;26.30;53.00;;;;;;6245478;22;20014;-73
2023/01/02 02:42:07;;;;;;;;;;;26.30;54.90;;;;;;6244122;22;20298;-73
2023/01/02 02:44:46;;;;;;;;;;;26.30;53.80;;;;;;6245682;22;19903;-73
2023/01/02 02:47:13;;;;;;;;;;;26.30;56.30;;;;;;6245552;22;20001;-72
2023/01/02 02:49:47;;;;;;;;;;;26.30;52.50;;;;;;6245560;22;19903;-73
2023/01/02 02:52:16;;;;;;;;;;;26.30;53.70;;;;;;6243950;22;19923;-73
2023/01/02 02:54:48;;;;;;;;;;;26.30;54.10;;;;;;6244056;23;19907;-73
2023/01/02 02:57:14;;;;;;;;;;;26.50;55.30;;;;;;6244308;23;19904;-73
2023/01/02 02:59:41;;;;;;;;;;;26.40;55.00;;;;;;6245582;22;20008;-73
2023/01/02 03:02:09;;;;;;;;;;;26.50;54.90;;;;;;6243831;22;19903;-73
2023/01/02 03:04:35;;;;;;;;;;;26.30;54.80;;;;;;6245742;22;19915;-73
2023/01/02 03:07:31;;;;;;;;;;;26.40;55.20;;;;;;6245367;22;20231;-73
2023/01/02 03:10:06;;;;;;;;;;;26.30;54.60;;;;;;6219636;22;19950;-73
2023/01/02 03:12:58;;;;;;;;;;;26.40;55.00;;;;;;6244014;22;19912;-73
2023/01/02 03:15:28;;;;;;;;;;;26.30;55.50;;;;;;6239689;23;19930;-73
2023/01/02 03:18:08;;;;;;;;;;;26.30;57.20;;;;;;6245559;22;20026;-73
2023/01/02 03:20:42;;;;;;;;;;;26.40;57.00;;;;;;6245607;22;19914;-73
2023/01/02 03:23:10;;;;;;;;;;;26.50;55.80;;;;;;6243828;22;19931;-73
2023/01/02 03:25:37;;;;;;;;;;;26.50;55.90;;;;;;6243852;23;19919;-74
2023/01/02 03:28:04;;;;;;;;;;;26.50;54.80;;;;;;6244193;23;19904;-73
2023/01/02 03:30:31;;;;;;;;;;;26.40;53.80;;;;;;6245514;22;19943;-73
2023/01/02 03:32:59;;;;;;;;;;;26.40;52.60;;;;;;6243510;22;20230;-73
2023/01/02 03:35:27;;;;;;;;;;;26.40;52.40;;;;;;6243723;23;19903;-73
2023/01/02 03:37:54;;;;;;;;;;;26.40;52.60;;;;;;6245478;22;19907;-73
2023/01/02 03:40:25;;;;;;;;;;;26.40;52.40;;;;;;6243831;23;19994;-73
2023/01/02 03:42:54;;;;;;;;;;;26.40;53.30;;;;;;6245391;22;20247;-73
2023/01/02 03:45:26;;;;;;;;;;;26.30;54.90;;;;;;6244012;23;19908;-73
2023/01/02 03:47:53;;;;;;;;;;;26.30;55.30;;;;;;6244055;23;19950;-73
2023/01/02 03:50:21;;;;;;;;;;;26.40;57.30;;;;;;6245034;22;20281;-73
2023/01/02 03:52:48;;;;;;;;;;;26.40;55.30;;;;;;6243554;22;19988;-73
2023/01/02 03:55:14;;;;;;;;;;;26.30;56.40;;;;;;6245453;22;19915;-73
2023/01/02 03:57:45;;;;;;;;;;;26.30;55.20;;;;;;6243734;23;19903;-74
2023/01/02 04:00:12;;;;;;;;;;;26.30;56.50;;;;;;6243287;23;19904;-73
2023/01/02 04:02:39;;;;;;;;;;;26.30;55.50;;;;;;6243652;22;19903;-72
2023/01/02 04:05:08;;;;;;;;;;;26.30;57.60;;;;;;6244933;22;20327;-73
2023/01/02 04:07:44;;;;;;;;;;;26.30;57.20;;;;;;6245306;22;19949;-73
2023/01/02 04:10:11;;;;;;;;;;;26.30;56.30;;;;;;6244961;22;19908;-73
2023/01/02 04:12:38;;;;;;;;;;;26.40;58.40;;;;;;6243661;22;19907;-73
2023/01/02 04:15:05;;;;;;;;;;;26.40;57.70;;;;;;6243410;23;20319;-73
2023/01/02 04:17:34;;;;;;;;;;;26.40;59.10;;;;;;6243553;23;19903;-73
2023/01/02 04:20:05;;;;;;;;;;;26.30;56.70;;;;;;6243528;23;19907;-72
2023/01/02 04:22:34;;;;;;;;;;;26.40;57.60;;;;;;6243471;22;19904;-75
2023/01/02 04:25:08;;;;;;;;;;;26.40;57.90;;;;;;6243365;23;20338;-73
2023/01/02 04:27:36;;;;;;;;;;;26.30;57.10;;;;;;6243296;23;19904;-73
2023/01/02 04:30:03;;;;;;;;;;;26.40;57.60;;;;;;6244946;22;19910;-73
2023/01/02 04:32:31;;;;;;;;;;;26.40;56.10;;;;;;6243266;22;19930;-73
2023/01/02 04:34:58;;;;;;;;;;;26.30;55.60;;;;;;6245218;22;20323;-73
2023/01/02 04:37:25;;;;;;;;;;;26.30;55.90;;;;;;6243366;23;19982;-73
2023/01/02 04:39:52;;;;;;;;;;;26.40;56.80;;;;;;6245023;22;19923;-73
2023/01/02 04:42:19;;;;;;;;;;;26.30;55.70;;;;;;6243098;22;19918;-73
2023/01/02 04:44:45;;;;;;;;;;;26.30;56.40;;;;;;6245714;22;19905;-73
2023/01/02 04:47:12;;;;;;;;;;;26.30;58.40;;;;;;6246898;22;19904;-73
2023/01/02 04:49:38;;;;;;;;;;;26.30;59.90;;;;;;6246882;22;19911;-73
2023/01/02 04:52:05;;;;;;;;;;;26.30;58.90;;;;;;6246691;22;19923;-73
2023/01/02 04:54:32;;;;;;;;;;;26.30;60.40;;;;;;6247171;22;19927;-73
2023/01/02 04:56:58;;;;;;;;;;;26.30;61.00;;;;;;6246972;22;19903;-73
2023/01/02 04:59:25;;;;;;;;;;;26.10;61.30;;;;;;6246903;22;19929;-73
2023/01/02 05:01:51;;;;;;;;;;;26.10;62.50;;;;;;6246701;22;20278;-73
2023/01/02 05:04:18;;;;;;;;;;;26.00;63.10;;;;;;6246853;22;19903;-73
2023/01/02 05:06:45;;;;;;;;;;;25.90;63.20;;;;;;6246714;22;19903;-73
2023/01/02 05:09:11;;;;;;;;;;;25.90;64.20;;;;;;6244868;23;20242;-73
2023/01/02 05:11:38;;;;;;;;;;;25.90;63.80;;;;;;6246391;22;19911;-73
2023/01/02 05:14:04;;;;;;;;;;;25.90;62.90;;;;;;6246530;22;19916;-73
2023/01/02 05:16:31;;;;;;;;;;;25.80;62.80;;;;;;6246882;22;19907;-73
2023/01/02 05:18:58;;;;;;;;;;;25.80;62.90;;;;;;6246584;22;19990;-74
2023/01/02 05:24:08;;;;;;;;;;;25.90;63.60;;;;;;6246401;23;19966;-73
2023/01/02 05:26:35;;;;;;;;;;;25.80;63.60;;;;;;6247095;22;19979;-73
2023/01/02 05:29:02;;;;;;;;;;;25.90;63.90;;;;;;6246558;22;20286;-73
2023/01/02 05:31:28;;;;;;;;;;;25.90;63.80;;;;;;6246199;22;19911;-74
2023/01/02 05:33:56;;;;;;;;;;;25.80;62.90;;;;;;6246747;22;19904;-73
2023/01/02 05:36:23;;;;;;;;;;;25.80;63.00;;;;;;6246576;22;19911;-73
2023/01/02 05:38:49;;;;;;;;;;;25.70;62.70;;;;;;6246158;22;20353;-73
2023/01/02 05:41:16;;;;;;;;;;;25.70;64.10;;;;;;6246293;22;19908;-73
2023/01/02 05:43:42;;;;;;;;;;;25.60;64.60;;;;;;6246212;22;19904;-73
2023/01/02 05:46:16;;;;;;;;;;;25.60;64.90;;;;;;6246457;22;19903;-73
2023/01/02 05:48:43;;;;;;;;;;;25.70;65.10;;;;;;6245906;22;19986;-73
2023/01/02 05:51:12;;;;;;;;;;;25.70;65.50;;;;;;6245873;22;19912;-74
2023/01/02 05:53:38;;;;;;;;;;;25.60;65.30;;;;;;6246486;22;19910;-73
2023/01/02 05:56:15;;;;;;;;;;;25.60;65.90;;;;;;6246004;22;19904;-74
2023/01/02 05:58:43;;;;;;;;;;;25.60;65.70;;;;;;6245673;22;19974;-73
2023/01/02 06:01:11;;;;;;;;;;;25.70;65.80;;;;;;6244302;22;19969;-73
2023/01/02 06:03:37;;;;;;;;;;;25.70;66.40;;;;;;6246101;22;19907;-73
2023/01/02 06:06:04;;;;;;;;;;;25.60;66.10;;;;;;6246102;22;19986;-73
2023/01/02 06:08:31;;;;;;;;;;;25.70;66.00;;;;;;6245968;22;20351;-73
2023/01/02 06:10:57;;;;;;;;;;;25.70;66.00;;;;;;6245964;22;19908;-73
2023/01/02 06:13:24;;;;;;;;;;;25.70;65.90;;;;;;6245835;22;19937;-73
2023/01/02 06:15:50;;;;;;;;;;;25.70;66.40;;;;;;6245943;22;19911;-73
2023/01/02 06:18:17;;;;;;;;;;;25.70;65.50;;;;;;6246144;22;19904;-73
2023/01/02 06:20:44;;;;;;;;;;;25.70;65.80;;;;;;6246138;22;19904;-73
2023/01/02 06:23:10;;;;;;;;;;;25.70;65.70;;;;;;6245611;22;19903;-73
2023/01/02 06:25:37;;;;;;;;;;;25.70;66.00;;;;;;6245930;22;19903;-73
2023/01/02 06:28:03;;;;;;;;;;;25.70;66.30;;;;;;6245748;22;19903;-73
2023/01/02 06:30:30;;;;;;;;;;;25.60;66.80;;;;;;6246127;22;19912;-73
2023/01/02 06:32:57;;;;;;;;;;;25.50;66.10;;;;;;6245549;22;20258;-74
2023/01/02 06:35:23;;;;;;;;;;;25.50;65.40;;;;;;6245690;22;19907;-73
2023/01/02 06:37:50;;;;;;;;;;;25.40;65.50;;;;;;6245420;22;19908;-73
2023/01/02 06:40:17;;;;;;;;;;;25.40;65.40;;;;;;6245587;22;19912;-74
2023/01/02 06:42:43;;;;;;;;;;;25.40;66.20;;;;;;6245114;22;20337;-73
2023/01/02 06:45:10;;;;;;;;;;;25.30;66.80;;;;;;6245479;22;19903;-73
2023/01/02 06:47:37;;;;;;;;;;;25.30;67.10;;;;;;6245802;22;19903;-73
2023/01/02 06:50:04;;;;;;;;;;;25.30;66.90;;;;;;6245668;22;19935;-73
2023/01/02 06:52:30;;;;;;;;;;;25.30;65.30;;;;;;6243692;22;19911;-73
2023/01/02 06:54:57;;;;;;;;;;;25.20;66.90;;;;;;6245433;22;19903;-73
2023/01/02 06:57:23;;;;;;;;;;;25.20;66.30;;;;;;6246103;22;19927;-73
2023/01/02 06:59:50;;;;;;;;;;;25.10;66.40;;;;;;6245750;22;19912;-72
2023/01/02 07:02:17;;;;;;;;;;;25.10;67.30;;;;;;6245601;22;19911;-73
2023/01/02 07:04:43;;;;;;;;;;;25.10;67.80;;;;;;6245948;22;19910;-73
2023/01/02 07:07:10;;;;;;;;;;;25.00;68.70;;;;;;6245015;22;19904;-73
2023/01/02 07:09:36;;;;;;;;;;;25.10;69.10;;;;;;6245534;22;19904;-73
2023/01/02 07:12:03;;;;;;;;;;;25.00;69.90;;;;;;6245309;22;19919;-73
2023/01/02 07:14:29;;;;;;;;;;;25.00;69.80;;;;;;6245452;22;20026;-72
2023/01/02 07:16:56;;;;;;;;;;;25.00;70.50;;;;;;6245171;22;19994;-73
2023/01/02 07:19:23;;;;;;;;;;;25.00;70.10;;;;;;6245332;22;19907;-73
2023/01/02 07:21:49;;;;;;;;;;;24.90;70.30;;;;;;6245345;22;20307;-73
2023/01/02 07:24:16;;;;;;;;;;;24.90;70.80;;;;;;6245607;22;19907;-73
2023/01/02 07:26:42;;;;;;;;;;;24.90;70.90;;;;;;6245096;22;19951;-73
2023/01/02 07:29:09;;;;;;;;;;;24.90;71.40;;;;;;6244993;22;20226;-73
2023/01/02 07:31:36;;;;;;;;;;;24.80;71.00;;;;;;6244904;22;20335;-73
2023/01/02 07:34:02;;;;;;;;;;;24.80;71.30;;;;;;6245376;22;20022;-73
2023/01/02 07:36:29;;;;;;;;;;;24.80;71.60;;;;;;6245475;22;20278;-73
2023/01/02 07:38:56;;;;;;;;;;;24.80;71.80;;;;;;6245031;22;19995;-74
2023/01/02 07:41:23;;;;;;;;;;;24.70;71.80;;;;;;6245391;22;19908;-73
2023/01/02 07:43:50;;;;;;;;;;;24.70;72.10;;;;;;6244949;22;19943;-73
2023/01/02 07:46:17;;;;;;;;;;;24.60;72.10;;;;;;6245679;22;19903;-73
2023/01/02 07:48:44;;;;;;;;;;;24.60;72.20;;;;;;6243430;23;19942;-73
2023/01/02 07:51:11;;;;;;;;;;;24.50;72.20;;;;;;6245272;22;20315;-72
2023/01/02 07:53:38;;;;;;;;;;;24.50;72.40;;;;;;6245537;22;19997;-73
2023/01/02 07:56:04;;;;;;;;;;;24.50;72.20;;;;;;6245262;22;20334;-73
2023/01/02 07:58:31;;;;;;;;;;;24.50;72.10;;;;;;6245661;22;19942;-72
2023/01/02 08:00:57;;;;;;;;;;;24.50;72.20;;;;;;6245332;22;19908;-73
2023/01/02 08:03:24;;;;;;;;;;;24.40;72.40;;;;;;6245340;22;19982;-73
2023/01/02 08:05:51;;;;;;;;;;;24.40;72.10;;;;;;6245069;22;19907;-73
2023/01/02 08:08:17;;;;;;;;;;;24.30;72.40;;;;;;6245192;22;19904;-73
2023/01/02 08:10:44;;;;;;;;;;;24.30;72.70;;;;;;6245084;22;19918;-72
2023/01/02 08:13:10;;;;;;;;;;;24.30;72.90;;;;;;6245211;22;19942;-73
2023/01/02 08:15:37;;;;;;;;;;;24.20;73.10;;;;;;6245160;22;19910;-73
2023/01/02 08:18:04;;;;;;;;;;;24.20;73.60;;;;;;6245072;22;19911;-73
2023/01/02 08:20:30;;;;;;;;;;;24.20;73.90;;;;;;6246596;22;19911;-73
2023/01/02 08:22:57;;;;;;;;;;;24.20;73.60;;;;;;6246712;22;19908;-73
2023/01/02 08:25:23;;;;;;;;;;;24.10;73.80;;;;;;6246800;22;19904;-72
2023/01/02 08:27:50;;;;;;;;;;;24.00;74.10;;;;;;6247216;22;19904;-73
2023/01/02 08:30:17;;;;;;;;;;;24.10;74.30;;;;;;6246842;22;19930;-72
2023/01/02 08:32:43;;;;;;;;;;;24.10;74.30;;;;;;6246863;22;19914;-73
2023/01/02 08:35:10;;;;;;;;;;;24.10;74.70;;;;;;6246977;22;20357;-73
2023/01/02 08:37:36;;;;;;;;;;;24.00;74.90;;;;;;6246876;23;19987;-72
2023/01/02 08:40:03;;;;;;;;;;;24.00;74.80;;;;;;6246826;22;20422;-73
2023/01/02 08:42:30;;;;;;;;;;;24.00;74.70;;;;;;6247014;22;19910;-72
2023/01/02 08:44:56;;;;;;;;;;;24.00;75.10;;;;;;6246508;22;19903;-72
2023/01/02 08:47:23;;;;;;;;;;;24.00;75.00;;;;;;6247192;22;19907;-73
2023/01/02 08:49:49;;;;;;;;;;;24.00;74.80;;;;;;6246953;22;19911;-72
2023/01/02 08:52:16;;;;;;;;;;;23.90;75.50;;;;;;6246495;22;19943;-72
2023/01/02 08:54:43;;;;;;;;;;;23.90;75.40;;;;;;6246777;22;19903;-73
2023/01/02 08:57:09;;;;;;;;;;;23.80;75.20;;;;;;6246636;22;20277;-73
2023/01/02 08:59:36;;;;;;;;;;;23.80;75.20;;;;;;6246869;22;19989;-73
2023/01/02 09:02:02;;;;;;;;;;;23.80;75.40;;;;;;6246543;22;19903;-68
2023/01/02 09:04:29;;;;;;;;;;;23.80;75.30;;;;;;6307497;22;19911;-70
2023/01/02 09:06:56;;;;;;;;;;;23.70;75.60;;;;;;6281249;22;19903;-71
2023/01/02 09:09:31;;;;;;;;;;;23.70;75.40;;;;;;6308492;22;20284;-73
2023/01/02 09:11:59;;;;;;;;;;;23.70;75.10;;;;;;6293101;22;20361;-72
2023/01/02 09:14:26;;;;;;;;;;;23.70;75.40;;;;;;6249899;22;19942;-71
2023/01/02 09:16:52;;;;;;;;;;;23.70;75.60;;;;;;6224848;22;20329;-72
2023/01/02 09:19:19;;;;;;;;;;;23.70;75.40;;;;;;6250420;22;19903;-71
2023/01/02 09:21:46;;;;;;;;;;;23.70;75.30;;;;;;6250034;22;20293;-72
2023/01/02 09:24:12;;;;;;;;;;;23.80;75.40;;;;;;6277023;22;19908;-72
2023/01/02 09:26:42;;;;;;;;;;;23.70;75.30;;;;;;6250514;22;20234;-71
2023/01/02 09:29:11;;;;;;;;;;;23.70;75.50;;;;;;6250056;22;19903;-71
2023/01/02 09:31:38;;;;;;;;;;;23.70;75.30;;;;;;6249573;22;20242;-70
2023/01/02 09:34:05;;;;;;;;;;;23.70;75.50;;;;;;6249790;22;19931;-70
2023/01/02 09:36:31;;;;;;;;;;;23.70;75.60;;;;;;6248965;22;19926;-70
2023/01/02 09:38:59;;;;;;;;;;;23.70;75.60;;;;;;6277115;22;19914;-70
2023/01/02 09:41:27;;;;;;;;;;;23.70;75.40;;;;;;6276721;22;19986;-70
2023/01/02 09:44:12;;;;;;;;;;;23.70;75.40;;;;;;6224288;22;20211;-70
2023/01/02 09:46:41;;;;;;;;;;;23.60;75.60;;;;;;6276828;22;19907;-70
2023/01/02 09:49:10;;;;;;;;;;;23.60;75.90;;;;;;6276817;22;19911;-70
2023/01/02 09:51:36;;;;;;;;;;;23.50;76.10;;;;;;6249744;22;19912;-70
2023/01/02 09:54:03;;;;;;;;;;;23.50;76.10;;;;;;6224310;22;19915;-70
2023/01/02 09:56:32;;;;;;;;;;;23.60;76.00;;;;;;6276815;22;19911;-70
2023/01/02 09:59:01;;;;;;;;;;;23.50;75.80;;;;;;6249871;22;19990;-70
2023/01/02 10:01:28;;;;;;;;;;;23.50;76.10;;;;;;6224133;22;19907;-70
2023/01/02 10:03:55;;;;;;;;;;;23.50;76.10;;;;;;6276330;22;19919;-71
2023/01/02 10:06:23;;;;;;;;;;;23.40;76.30;;;;;;6276508;22;20316;-70
2023/01/02 10:08:56;;;;;;;;;;;23.50;76.40;;;;;;6249345;22;19904;-71
2023/01/02 10:11:41;;;;;;;;;;;23.40;76.60;;;;;;6249597;22;19911;-70
2023/01/02 10:14:10;;;;;;;;;;;23.50;76.80;;;;;;6276667;22;19950;-70
2023/01/02 10:16:38;;;;;;;;;;;23.40;76.70;;;;;;6277476;22;19910;-72
2023/01/02 10:19:06;;;;;;;;;;;23.50;76.60;;;;;;6223768;22;19908;-72
2023/01/02 10:21:34;;;;;;;;;;;23.40;76.80;;;;;;6276056;22;19903;-72
2023/01/02 10:24:17;;;;;;;;;;;23.40;77.00;;;;;;6249380;22;19904;-72
2023/01/02 10:26:45;;;;;;;;;;;23.40;77.00;;;;;;6249602;22;20002;-72
2023/01/02 10:29:28;;;;;;;;;;;23.40;77.20;;;;;;6249345;22;20332;-72
2023/01/02 10:31:59;;;;;;;;;;;23.50;77.20;;;;;;6249805;22;19968;-72
2023/01/02 10:34:29;;;;;;;;;;;23.50;77.30;;;;;;6249724;22;19903;-72
2023/01/02 10:36:55;;;;;;;;;;;23.40;77.40;;;;;;6276846;22;20242;-72
2023/01/02 10:39:25;;;;;;;;;;;23.40;77.40;;;;;;6249503;22;19925;-72
2023/01/02 10:41:55;;;;;;;;;;;23.40;77.50;;;;;;6275774;22;19907;-72
2023/01/02 10:44:30;;;;;;;;;;;23.40;77.60;;;;;;6276186;22;19903;-72
2023/01/02 10:46:57;;;;;;;;;;;23.40;77.50;;;;;;6223775;22;19911;-72
2023/01/02 10:49:24;;;;;;;;;;;23.40;77.70;;;;;;6249420;22;19903;-72
2023/01/02 10:52:11;;;;;;;;;;;23.40;77.60;;;;;;6248808;22;19919;-71
2023/01/02 10:54:51;;;;;;;;;;;23.40;77.60;;;;;;6275719;22;19914;-72
2023/01/02 10:57:21;;;;;;;;;;;23.40;77.90;;;;;;6249002;22;19910;-72
2023/01/02 10:59:52;;;;;;;;;;;23.50;77.60;;;;;;6276666;22;19908;-72
2023/01/02 11:02:50;;;;;;;;;;;23.40;77.50;;;;;;6249012;22;19941;-72
2023/01/02 11:05:20;;;;;;;;;;;23.30;77.90;;;;;;6192762;22;19904;-72
2023/01/02 11:07:48;;;;;;;;;;;23.30;77.90;;;;;;6249170;22;20037;-72
2023/01/02 11:10:24;;;;;;;;;;;23.30;77.70;;;;;;6249398;22;19904;-72
2023/01/02 11:12:51;;;;;;;;;;;23.30;77.80;;;;;;6249225;22;19956;-72
2023/01/02 11:15:33;;;;;;;;;;;23.30;77.60;;;;;;6249510;22;19914;-72
2023/01/02 11:18:00;;;;;;;;;;;23.40;77.30;;;;;;6276234;22;20277;-72
2023/01/02 11:20:26;;;;;;;;;;;23.30;77.50;;;;;;6249304;22;20428;-72
2023/01/02 11:22:54;;;;;;;;;;;23.30;77.50;;;;;;6275905;22;19931;-72
2023/01/02 11:25:40;;;;;;;;;;;23.30;77.60;;;;;;6249279;22;19911;-72
2023/01/02 11:28:13;;;;;;;;;;;23.30;77.40;;;;;;6248187;22;19985;-72
2023/01/02 11:30:46;;;;;;;;;;;23.30;77.80;;;;;;6248937;22;19946;-71
2023/01/02 11:33:27;;;;;;;;;;;23.30;77.70;;;;;;6275894;22;19958;-72
2023/01/02 11:35:56;;;;;;;;;;;23.30;77.60;;;;;;6249049;22;19911;-72
2023/01/02 11:38:27;;;;;;;;;;;23.30;77.60;;;;;;6275971;22;19981;-72
2023/01/02 11:41:00;;;;;;;;;;;23.30;77.50;;;;;;6248706;22;19903;-72
2023/01/02 11:43:49;;;;;;;;;;;23.30;77.60;;;;;;6248879;22;19904;-72
2023/01/02 11:46:19;;;;;;;;;;;23.30;77.70;;;;;;6276004;22;19903;-72
2023/01/02 11:48:46;;;;;;;;;;;23.30;77.70;;;;;;6248798;22;19908;-72
2023/01/02 11:51:43;;;;;;;;;;;23.30;77.50;;;;;;6223745;22;20331;-71
2023/01/02 11:54:16;;;;;;;;;;;23.30;77.50;;;;;;6262117;22;20250;-72
2023/01/02 11:56:46;;;;;;;;;;;23.30;77.40;;;;;;6226898;22;19912;-71
2023/01/02 12:02:55;;;;;;;;;;;23.30;77.40;;;;;;6208141;22;19941;-72
2023/01/02 12:05:49;;;;;;;;;;;23.30;77.60;;;;;;6278032;22;19957;-71
2023/01/02 12:08:31;;;;;;;;;;;23.30;77.50;;;;;;6279567;22;19913;-72
2023/01/02 12:11:14;;;;;;;;;;;23.30;77.70;;;;;;6251692;22;19911;-72
2023/01/02 12:13:58;;;;;;;;;;;23.30;77.60;;;;;;6279081;22;19960;-72
2023/01/02 12:16:40;;;;;;;;;;;23.20;77.70;;;;;;6252333;22;19919;-72
2023/01/02 12:19:16;;;;;;;;;;;23.20;77.60;;;;;;6279160;22;19907;-73
2023/01/02 12:21:43;;;;;;;;;;;23.30;77.70;;;;;;6278978;22;19957;-72
2023/01/02 12:24:22;;;;;;;;;;;23.20;77.80;;;;;;6279044;22;19926;-72
2023/01/02 12:26:49;;;;;;;;;;;23.20;77.70;;;;;;6252178;22;19907;-72
2023/01/02 12:29:19;;;;;;;;;;;23.20;77.70;;;;;;6279220;22;19903;-72
2023/01/02 12:31:45;;;;;;;;;;;23.20;77.60;;;;;;6279025;22;19911;-72
2023/01/02 12:34:18;;;;;;;;;;;23.20;77.70;;;;;;6279078;22;19938;-72
2023/01/02 12:36:51;;;;;;;;;;;23.30;77.60;;;;;;6278822;22;19911;-72
2023/01/02 12:39:39;;;;;;;;;;;23.20;77.80;;;;;;6252114;22;19994;-72
2023/01/02 12:42:32;;;;;;;;;;;23.20;77.60;;;;;;6279194;22;19903;-72
2023/01/02 12:44:58;;;;;;;;;;;23.10;77.70;;;;;;6250971;22;19920;-72
2023/01/02 12:47:31;;;;;;;;;;;23.10;77.60;;;;;;6252555;22;19926;-71
2023/01/02 12:50:01;;;;;;;;;;;23.10;77.60;;;;;;6278812;22;19907;-72
2023/01/02 12:53:02;;;;;;;;;;;23.10;77.80;;;;;;6278806;22;19911;-72
2023/01/02 12:55:45;;;;;;;;;;;23.10;77.70;;;;;;6125842;23;19913;-72
2023/01/02 12:58:32;;;;;;;;;;;23.10;77.70;;;;;;6238798;22;19903;-72
2023/01/02 13:01:07;;;;;;;;;;;23.10;77.90;;;;;;6250956;22;19934;-72
2023/01/02 13:03:46;;;;;;;;;;;23.00;77.70;;;;;;6251876;22;19990;-72
2023/01/02 13:06:12;;;;;;;;;;;23.00;77.60;;;;;;6277260;22;19907;-72
2023/01/02 13:08:59;;;;;;;;;;;23.10;77.40;;;;;;6250190;22;19949;-71
2023/01/02 13:11:37;;;;;;;;;;;23.00;77.50;;;;;;6276996;22;19926;-72
2023/01/02 13:14:03;;;;;;;;;;;23.00;77.60;;;;;;6224791;22;19949;-72
2023/01/02 13:16:30;;;;;;;;;;;23.00;77.70;;;;;;6250330;22;19903;-72
2023/01/02 13:19:12;;;;;;;;;;;23.00;77.90;;;;;;6224694;22;19982;-72
2023/01/02 13:21:48;;;;;;;;;;;22.90;77.90;;;;;;6276900;22;19903;-72
2023/01/02 13:24:16;;;;;;;;;;;23.00;77.70;;;;;;6276936;22;19903;-71
2023/01/02 13:26:43;;;;;;;;;;;23.00;77.80;;;;;;6250277;22;19999;-72
2023/01/02 13:29:09;;;;;;;;;;;22.90;77.80;;;;;;6250308;22;19929;-72
2023/01/02 13:31:37;;;;;;;;;;;22.90;78.00;;;;;;6277070;22;19957;-72
2023/01/02 13:34:07;;;;;;;;;;;22.90;77.70;;;;;;6250405;22;19954;-72
2023/01/02 13:36:46;;;;;;;;;;;22.90;77.70;;;;;;6277121;22;19911;-71
2023/01/02 13:39:15;;;;;;;;;;;22.90;77.80;;;;;;6250360;22;19934;-72
2023/01/02 13:44:34;;;;;;;;;;;22.90;78.00;;;;;;6253946;22;19964;-72
2023/01/02 13:47:08;;;;;;;;;;;22.90;78.10;;;;;;6249916;22;19907;-72
2023/01/02 13:49:34;;;;;;;;;;;22.90;78.00;;;;;;6276309;22;20242;-71
2023/01/02 13:52:01;;;;;;;;;;;22.80;78.10;;;;;;6276878;22;19922;-73
2023/01/02 13:54:33;;;;;;;;;;;22.90;78.30;;;;;;6277022;22;20330;-72
2023/01/02 13:57:15;;;;;;;;;;;22.80;78.20;;;;;;6276892;22;19939;-72
2023/01/02 13:59:56;;;;;;;;;;;22.90;78.20;;;;;;6276862;22;19927;-72
2023/01/02 14:02:23;;;;;;;;;;;22.90;78.10;;;;;;6276806;22;19911;-71
2023/01/02 14:04:49;;;;;;;;;;;22.90;78.30;;;;;;6277114;22;19911;-72
2023/01/02 14:07:25;;;;;;;;;;;22.90;78.30;;;;;;6276940;22;20315;-72
2023/01/02 14:10:07;;;;;;;;;;;22.80;78.50;;;;;;6276694;22;19903;-71
2023/01/02 14:12:53;;;;;;;;;;;22.80;78.30;;;;;;6276380;22;20270;-71
2023/01/02 14:15:21;;;;;;;;;;;22.80;78.40;;;;;;6275936;22;19910;-72
2023/01/02 14:17:54;;;;;;;;;;;22.80;78.60;;;;;;6248942;22;19914;-72
2023/01/02 14:20:21;;;;;;;;;;;22.80;78.70;;;;;;6249515;22;19903;-72
2023/01/02 14:22:47;;;;;;;;;;;22.80;78.80;;;;;;6249181;22;19904;-72
2023/01/02 14:25:14;;;;;;;;;;;22.80;78.80;;;;;;6276760;22;19903;-72
2023/01/02 14:27:41;;;;;;;;;;;22.80;79.00;;;;;;6249584;22;20310;-72
2023/01/02 14:30:10;;;;;;;;;;;22.80;78.80;;;;;;6249461;22;19907;-72
2023/01/02 14:32:38;;;;;;;;;;;22.80;79.00;;;;;;6224206;22;19919;-72
2023/01/02 14:35:05;;;;;;;;;;;22.80;78.80;;;;;;6249810;22;19910;-72
2023/01/02 14:37:38;;;;;;;;;;;22.80;78.50;;;;;;6249590;22;20250;-72
2023/01/02 14:40:18;;;;;;;;;;;22.80;78.60;;;;;;6276622;22;19917;-72